Bagshot, United Kingdom
Current Conditions -  °F | °C
As of 4:20 PM on Wednesday 22 Oct 2014 (Local Time) from EGLF Reporting Station
Few Clouds Few Clouds  
Wind Chill: 55°   Ceiling: Unl
Heat Index: 55°   Visibility: 6mi
Dew Point: 45°   Wind: 8mph
Humidity: 67%   Direction: 270°W
Pressure: 30.27"   Gusts: NA
Location:  51.36°N, 0.69°W
Report Text: EGLF 221520Z 27007KT 240V310 9999 FEW032 13/07 Q1025
Loading
Personal Weather Stations






























Interactive Weather Map
Tropical Storm Tracking
New forecast layout! Learn more

10-Day Weather Forecast

Advertisements
Track Severe Weather on mobile